createdAt,value
2023-04-10T00:03:52.002Z,60.87
2023-04-10T00:08:43.881Z,61.33
2023-04-10T00:13:35.865Z,61.34
2023-04-10T00:18:28.737Z,61.59
2023-04-10T00:23:20.435Z,62.13
2023-04-10T00:28:12.114Z,62.11
2023-04-10T00:33:04.118Z,61.86
2023-04-10T00:37:56.986Z,62.39
2023-04-10T00:42:49.038Z,62.65
2023-04-10T00:47:41.487Z,62.55
2023-04-10T00:52:33.511Z,62.80
2023-04-10T00:57:26.470Z,62.74
2023-04-10T01:02:19.289Z,62.67
2023-04-10T01:07:39.139Z,62.95
2023-04-10T01:13:05.969Z,63.20
2023-04-10T01:18:10.186Z,63.76
2023-04-10T01:23:24.456Z,63.92
2023-04-10T01:28:19.357Z,63.83
2023-04-10T01:33:14.029Z,63.84
2023-04-10T01:38:07.589Z,63.05
2023-04-10T01:43:01.612Z,63.38
2023-04-10T01:48:05.678Z,63.23
2023-04-10T01:52:58.695Z,63.18
2023-04-10T01:57:53.555Z,63.43
2023-04-10T02:02:46.654Z,63.17
2023-04-10T02:07:41.749Z,63.12
2023-04-10T02:12:42.118Z,62.88
2023-04-10T02:17:36.290Z,63.31
2023-04-10T02:22:29.063Z,63.34
2023-04-10T02:27:31.355Z,63.07
2023-04-10T02:32:24.365Z,63.46
2023-04-10T02:37:16.707Z,62.69
2023-04-10T02:42:08.566Z,63.14
2023-04-10T02:47:01.433Z,62.93
2023-04-10T02:51:55.575Z,63.03
2023-04-10T02:56:47.890Z,63.32
2023-04-10T03:01:39.847Z,63.77
2023-04-10T03:06:31.903Z,63.57
2023-04-10T03:11:23.913Z,62.77
2023-04-10T03:16:17.632Z,63.29
2023-04-10T03:21:09.991Z,63.15
2023-04-10T03:26:01.917Z,63.05
2023-04-10T03:30:56.583Z,62.66
2023-04-10T03:35:48.570Z,63.17
2023-04-10T03:40:40.334Z,63.08
2023-04-10T03:45:34.632Z,62.54
2023-04-10T03:50:27.441Z,63.31
2023-04-10T03:55:23.713Z,63.51
2023-04-10T04:00:17.519Z,64.09
2023-04-10T04:05:13.064Z,63.66
2023-04-10T04:10:12.370Z,63.58
2023-04-10T04:15:25.803Z,63.11
2023-04-10T04:20:44.690Z,63.59
2023-04-10T04:25:56.933Z,63.75
2023-04-10T04:31:07.372Z,64.34
2023-04-10T04:36:22.318Z,64.30
2023-04-10T04:41:43.445Z,64.36
2023-04-10T04:46:55.182Z,64.83
2023-04-10T04:52:16.494Z,64.32
2023-04-10T04:57:12.174Z,63.94
2023-04-10T05:02:30.837Z,64.39
2023-04-10T05:07:41.795Z,64.36
2023-04-10T05:12:53.891Z,63.58
2023-04-10T05:17:51.231Z,63.31
2023-04-10T05:23:06.483Z,62.40
2023-04-10T05:28:18.427Z,61.71
2023-04-10T05:33:41.915Z,61.17
2023-04-10T05:38:42.704Z,59.70
2023-04-10T05:44:03.868Z,58.70
2023-04-10T05:49:14.836Z,58.33
2023-04-10T05:54:32.448Z,57.06
2023-04-10T05:59:42.988Z,53.82
2023-04-10T06:04:52.581Z,50.70
2023-04-10T06:09:45.309Z,48.85
2023-04-10T06:14:37.002Z,48.75
2023-04-10T06:19:29.002Z,46.54
2023-04-10T06:24:23.949Z,44.00
2023-04-10T06:29:16.917Z,42.97
2023-04-10T06:34:08.708Z,40.95
2023-04-10T06:39:02.898Z,38.63
2023-04-10T06:43:54.702Z,36.92
2023-04-10T06:48:46.415Z,35.73
2023-04-10T06:53:38.008Z,36.45
2023-04-10T06:58:30.042Z,35.40
2023-04-10T07:03:21.777Z,35.67
2023-04-10T07:08:13.512Z,34.62
2023-04-10T07:13:05.919Z,32.78
2023-04-10T07:17:57.926Z,32.07
2023-04-10T07:22:49.686Z,32.99
2023-04-10T07:27:41.460Z,35.42
2023-04-10T07:32:36.090Z,33.88
2023-04-10T07:37:28.071Z,34.60
2023-04-10T07:42:19.865Z,36.37
2023-04-10T07:47:11.613Z,37.58
2023-04-10T07:52:03.571Z,36.22
2023-04-10T07:56:55.391Z,34.68
2023-04-10T08:01:47.241Z,33.76
2023-04-10T08:06:39.005Z,33.76
2023-04-10T08:11:35.301Z,33.36
2023-04-10T08:16:30.509Z,32.30
2023-04-10T08:21:23.269Z,32.46
2023-04-10T13:25:49.802Z,23.41
2023-04-10T13:30:42.479Z,23.02
2023-04-10T13:35:34.450Z,23.24
2023-04-10T13:40:26.169Z,23.21
2023-04-10T13:45:17.986Z,23.37
2023-04-10T13:50:10.355Z,23.49
2023-04-10T13:55:02.051Z,23.67
2023-04-10T13:59:53.839Z,23.85
2023-04-10T14:04:46.266Z,23.38
2023-04-10T14:09:38.552Z,23.23
2023-04-10T14:14:30.720Z,23.85
2023-04-10T14:19:22.528Z,23.32
2023-04-10T14:24:14.285Z,24.58
2023-04-10T14:29:08.569Z,24.10
2023-04-10T14:34:00.520Z,24.36
2023-04-10T14:38:52.434Z,24.45
2023-04-10T14:43:44.830Z,24.40
2023-04-10T14:48:36.718Z,24.64
2023-04-10T14:53:28.505Z,24.35
2023-04-10T14:58:20.254Z,25.16
2023-04-10T15:03:12.153Z,25.96
2023-04-10T15:08:03.995Z,27.46
2023-04-10T15:12:55.842Z,27.87
2023-04-10T15:17:47.664Z,28.16
2023-04-10T15:22:40.460Z,28.17
2023-04-10T15:27:32.210Z,29.05
2023-04-10T15:32:24.002Z,29.85
2023-04-10T15:37:15.858Z,30.40
2023-04-10T15:42:08.469Z,30.97
2023-04-10T15:47:00.309Z,31.50
2023-04-10T15:51:52.047Z,31.62
2023-04-10T15:56:43.904Z,31.82
2023-04-10T16:01:35.769Z,32.61
2023-04-10T16:06:28.170Z,33.16
2023-04-10T16:11:22.245Z,34.13
2023-04-10T16:16:18.211Z,35.24
2023-04-10T16:21:10.044Z,35.79
2023-04-10T16:26:01.840Z,38.46
2023-04-10T16:30:53.614Z,40.79
2023-04-10T16:35:45.565Z,42.85
2023-04-10T16:40:38.811Z,44.10
2023-04-10T16:45:30.554Z,46.28
2023-04-10T16:50:22.448Z,44.49
2023-04-10T16:55:14.353Z,45.01
2023-04-10T17:00:06.802Z,45.97
2023-04-10T17:04:58.607Z,44.21
2023-04-10T17:09:50.773Z,44.02
2023-04-10T17:14:42.739Z,44.64
2023-04-10T17:19:34.512Z,43.60
2023-04-10T17:24:26.316Z,43.09
2023-04-10T17:29:18.173Z,43.51
2023-04-10T17:34:09.914Z,42.64
2023-04-10T17:39:01.678Z,41.54
2023-04-10T17:43:53.464Z,41.36
2023-04-10T17:48:46.017Z,42.04
2023-04-10T17:53:37.851Z,42.82
2023-04-10T17:58:29.832Z,42.78
2023-04-10T18:03:21.693Z,42.90
2023-04-10T18:08:14.521Z,42.48
2023-04-10T18:13:06.582Z,42.56
2023-04-10T18:17:58.378Z,43.02
2023-04-10T18:22:50.286Z,43.39
2023-04-10T18:28:04.315Z,43.85
2023-04-10T18:32:58.117Z,44.35
2023-04-10T18:37:49.894Z,46.92
2023-04-10T18:42:41.588Z,48.24
2023-04-10T18:47:34.179Z,47.88
2023-04-10T18:52:27.215Z,48.39
2023-04-10T18:57:18.880Z,49.03
2023-04-10T19:02:10.985Z,53.25
2023-04-10T19:07:03.782Z,54.70
2023-04-10T19:11:56.254Z,55.69
2023-04-10T19:16:47.997Z,58.19
2023-04-10T19:21:39.776Z,58.44
2023-04-10T19:26:31.698Z,60.15
2023-04-10T19:31:24.072Z,61.01
2023-04-10T19:36:18.081Z,63.07
2023-04-10T19:41:14.803Z,64.02
2023-04-10T19:46:06.830Z,65.51
2023-04-10T19:51:07.612Z,66.57
2023-04-10T19:55:59.332Z,68.41
2023-04-10T20:00:52.015Z,69.09
2023-04-10T20:05:43.952Z,69.77
2023-04-10T20:10:35.788Z,70.26
2023-04-10T20:15:27.508Z,70.98
2023-04-10T20:20:19.282Z,71.60
2023-04-10T20:25:11.199Z,74.65
2023-04-10T20:30:03.118Z,75.66
2023-04-10T20:34:54.882Z,75.85
2023-04-10T20:39:46.739Z,75.16
2023-04-10T20:44:38.937Z,75.26
2023-04-10T20:49:31.205Z,74.93
2023-04-10T20:54:23.961Z,75.18
2023-04-10T20:59:15.699Z,75.05
2023-04-10T21:04:07.554Z,75.91
2023-04-10T21:08:59.429Z,75.67
2023-04-10T21:13:51.478Z,76.50
2023-04-10T21:18:43.320Z,76.60
2023-04-10T21:23:35.080Z,77.78
2023-04-10T21:28:26.798Z,78.01
2023-04-10T21:33:18.493Z,78.58
2023-04-10T21:38:11.849Z,77.88
2023-04-10T21:43:04.210Z,78.48
2023-04-10T21:47:55.973Z,78.16
2023-04-10T21:52:48.078Z,78.12
2023-04-10T21:57:39.851Z,78.11
2023-04-10T22:02:31.688Z,79.53
2023-04-10T22:07:23.523Z,78.50
2023-04-10T22:12:15.332Z,78.87
2023-04-10T22:17:07.141Z,78.53
2023-04-10T22:21:59.011Z,78.63
2023-04-10T22:26:50.803Z,78.04
2023-04-10T22:31:44.014Z,78.87
2023-04-10T22:36:35.890Z,79.24
2023-04-10T22:41:28.463Z,79.12
2023-04-10T22:46:20.266Z,78.98
2023-04-10T22:51:12.585Z,79.91
2023-04-10T22:56:05.728Z,80.42
2023-04-10T23:00:57.426Z,80.44
2023-04-10T23:05:49.223Z,80.89
2023-04-10T23:10:41.030Z,80.56
2023-04-10T23:15:32.937Z,81.33
2023-04-10T23:20:25.367Z,81.13
2023-04-10T23:25:17.128Z,80.12
2023-04-10T23:30:09.038Z,79.10
2023-04-10T23:35:00.991Z,78.59
2023-04-10T23:39:52.813Z,78.44
2023-04-10T23:44:44.559Z,77.82
2023-04-10T23:49:36.302Z,76.46
2023-04-10T23:54:29.739Z,74.98
2023-04-10T23:59:21.506Z,73.84
